createdAt,value
2023-06-16T00:01:18.382Z,19.40
2023-06-16T00:03:50.763Z,19.40
2023-06-16T00:06:20.380Z,19.40
2023-06-16T00:08:49.286Z,19.40
2023-06-16T00:11:17.349Z,19.30
2023-06-16T00:13:46.678Z,19.30
2023-06-16T00:16:14.737Z,19.20
2023-06-16T00:18:45.411Z,19.20
2023-06-16T00:21:15.388Z,19.20
2023-06-16T00:23:42.944Z,19.10
2023-06-16T00:26:10.027Z,19.10
2023-06-16T00:28:40.147Z,19.00
2023-06-16T00:31:07.258Z,19.00
2023-06-16T00:33:36.488Z,18.90
2023-06-16T00:36:04.282Z,18.90
2023-06-16T00:38:31.549Z,18.90
2023-06-16T00:40:58.658Z,18.80
2023-06-16T00:43:25.889Z,18.80
2023-06-16T00:45:53.439Z,18.70
2023-06-16T00:48:21.490Z,18.70
2023-06-16T00:50:48.981Z,18.70
2023-06-16T00:53:17.819Z,18.60
2023-06-16T00:55:45.631Z,18.60
2023-06-16T00:58:12.837Z,18.60
2023-06-16T01:00:39.890Z,18.60
2023-06-16T01:03:10.116Z,18.50
2023-06-16T01:05:38.012Z,18.50
2023-06-16T01:08:18.107Z,18.40
2023-06-16T01:11:04.548Z,18.40
2023-06-16T01:13:49.684Z,18.40
2023-06-16T01:16:19.991Z,18.40
2023-06-16T01:18:49.305Z,18.40
2023-06-16T01:21:34.101Z,18.40
2023-06-16T01:24:06.926Z,18.30
2023-06-16T01:26:36.575Z,18.30
2023-06-16T01:29:07.306Z,18.20
2023-06-16T01:31:36.020Z,18.20
2023-06-16T01:34:07.693Z,18.20
2023-06-16T01:36:37.446Z,18.10
2023-06-16T01:39:06.550Z,18.10
2023-06-16T01:41:34.715Z,18.10
2023-06-16T01:44:02.863Z,18.00
2023-06-16T01:46:31.773Z,18.00
2023-06-16T01:48:59.557Z,18.00
2023-06-16T01:51:26.744Z,18.00
2023-06-16T01:53:54.496Z,17.90
2023-06-16T01:56:21.646Z,17.90
2023-06-16T01:58:48.956Z,17.90
2023-06-16T02:01:30.139Z,17.90
2023-06-16T02:04:09.605Z,17.80
2023-06-16T02:06:50.200Z,17.80
2023-06-16T02:09:19.107Z,17.80
2023-06-16T02:11:47.959Z,17.70
2023-06-16T02:14:17.089Z,17.70
2023-06-16T02:16:44.348Z,17.60
2023-06-16T02:19:13.260Z,17.60
2023-06-16T02:21:42.661Z,17.60
2023-06-16T02:24:10.287Z,17.60
2023-06-16T02:26:40.944Z,17.50
2023-06-16T02:29:08.369Z,17.50
2023-06-16T02:31:35.622Z,17.40
2023-06-16T02:34:02.817Z,17.40
2023-06-16T02:36:30.400Z,17.40
2023-06-16T02:38:58.009Z,17.40
2023-06-16T02:41:25.083Z,17.40
2023-06-16T02:43:52.171Z,17.30
2023-06-16T02:46:19.194Z,17.30
2023-06-16T02:48:46.298Z,17.30
2023-06-16T02:51:13.435Z,17.30
2023-06-16T02:53:40.778Z,17.20
2023-06-16T02:56:08.764Z,17.20
2023-06-16T02:58:37.281Z,17.20
2023-06-16T03:01:05.544Z,17.10
2023-06-16T03:03:53.241Z,17.10
2023-06-16T03:06:52.940Z,17.10
2023-06-16T03:09:49.493Z,17.00
2023-06-16T03:12:17.981Z,17.00
2023-06-16T03:15:01.234Z,17.00
2023-06-16T03:17:28.382Z,16.90
2023-06-16T03:19:55.591Z,16.90
2023-06-16T03:22:31.792Z,16.90
2023-06-16T03:25:03.917Z,16.90
2023-06-16T03:27:34.885Z,16.90
2023-06-16T03:30:04.708Z,16.80
2023-06-16T03:32:48.540Z,16.80
2023-06-16T03:35:15.601Z,16.80
2023-06-16T03:37:42.923Z,16.70
2023-06-16T03:40:10.470Z,16.70
2023-06-16T03:42:38.442Z,16.70
2023-06-16T03:45:07.934Z,16.70
2023-06-16T03:47:35.050Z,16.60
2023-06-16T03:50:02.297Z,16.60
2023-06-16T03:52:30.838Z,16.60
2023-06-16T03:54:58.391Z,16.60
2023-06-16T03:57:25.449Z,16.60
2023-06-16T03:59:52.540Z,16.50
2023-06-16T04:02:20.688Z,16.50
2023-06-16T04:04:48.744Z,16.50
2023-06-16T04:07:20.235Z,16.40
2023-06-16T04:09:50.172Z,16.40
2023-06-16T04:12:18.307Z,16.40
2023-06-16T04:14:45.359Z,16.40
2023-06-16T04:17:13.183Z,16.40
2023-06-16T04:19:42.503Z,16.40
2023-06-16T04:22:09.710Z,16.40
2023-06-16T04:24:47.410Z,16.40
2023-06-16T04:27:14.680Z,16.40
2023-06-16T04:29:43.367Z,16.30
2023-06-16T04:32:15.422Z,16.30
2023-06-16T04:34:46.080Z,16.40
2023-06-16T04:37:15.544Z,16.30
2023-06-16T04:39:42.640Z,16.30
2023-06-16T04:42:13.662Z,16.30
2023-06-16T04:44:42.716Z,16.30
2023-06-16T04:47:10.856Z,16.30
2023-06-16T04:49:38.269Z,16.30
2023-06-16T04:52:07.873Z,16.30
2023-06-16T04:54:34.922Z,16.40
2023-06-16T04:57:02.068Z,16.30
2023-06-16T04:59:32.840Z,16.40
2023-06-16T05:02:00.512Z,16.30
2023-06-16T05:04:28.715Z,16.40
2023-06-16T05:06:55.860Z,16.40
2023-06-16T05:09:22.882Z,16.40
2023-06-16T05:11:49.946Z,16.40
2023-06-16T05:14:17.067Z,16.40
2023-06-16T05:16:44.339Z,16.50
2023-06-16T05:19:11.857Z,16.50
2023-06-16T05:21:48.286Z,16.60
2023-06-16T05:24:15.789Z,16.60
2023-06-16T05:26:42.871Z,16.60
2023-06-16T05:29:10.673Z,16.70
2023-06-16T05:31:38.085Z,16.70
2023-06-16T05:34:05.222Z,16.70
2023-06-16T05:36:36.260Z,16.80
2023-06-16T05:39:06.989Z,16.80
2023-06-16T05:41:36.082Z,16.80
2023-06-16T05:44:03.591Z,16.90
2023-06-16T05:46:30.885Z,16.90
2023-06-16T05:48:59.236Z,16.90
2023-06-16T05:51:26.916Z,17.00
2023-06-16T05:53:54.996Z,17.00
2023-06-16T05:56:25.044Z,17.10
2023-06-16T05:58:54.027Z,17.10
2023-06-16T06:01:21.384Z,17.20
2023-06-16T06:03:48.962Z,17.30
2023-06-16T06:06:18.896Z,17.30
2023-06-16T06:08:46.999Z,17.30
2023-06-16T06:11:15.140Z,17.40
2023-06-16T06:13:42.671Z,17.40
2023-06-16T06:16:10.230Z,17.50
2023-06-16T06:18:37.372Z,17.50
2023-06-16T06:21:04.408Z,17.60
2023-06-16T06:23:31.856Z,17.70
2023-06-16T06:25:59.282Z,17.80
2023-06-16T06:28:26.433Z,17.90
2023-06-16T06:30:54.411Z,17.90
2023-06-16T06:33:22.655Z,17.90
2023-06-16T06:35:50.171Z,18.00
2023-06-16T06:38:17.367Z,18.10
2023-06-16T06:40:44.845Z,18.20
2023-06-16T06:43:13.546Z,18.30
2023-06-16T06:45:51.121Z,18.40
2023-06-16T06:48:20.344Z,18.40
2023-06-16T06:50:50.430Z,18.50
2023-06-16T06:53:19.754Z,18.60
2023-06-16T06:55:47.385Z,18.60
2023-06-16T06:58:15.265Z,18.70
2023-06-16T07:00:42.376Z,18.80
2023-06-16T07:03:09.512Z,18.90
2023-06-16T07:05:36.625Z,19.00
2023-06-16T07:08:04.558Z,19.10
2023-06-16T07:10:33.980Z,19.20
2023-06-16T07:13:01.132Z,19.30
2023-06-16T07:15:28.194Z,19.30
2023-06-16T07:17:55.352Z,19.40
2023-06-16T07:20:22.461Z,19.50
2023-06-16T07:22:49.544Z,19.60
2023-06-16T07:25:17.341Z,19.70
2023-06-16T07:27:44.617Z,19.80
2023-06-16T07:30:12.412Z,19.90
2023-06-16T07:32:42.831Z,20.00
2023-06-16T07:35:09.967Z,20.10
2023-06-16T07:37:37.055Z,20.20
2023-06-16T07:40:08.242Z,20.30
2023-06-16T07:42:35.391Z,20.40
2023-06-16T07:45:02.419Z,20.40
2023-06-16T07:47:29.488Z,20.50
2023-06-16T07:49:56.540Z,20.60
2023-06-16T07:52:23.580Z,20.80
2023-06-16T07:54:50.630Z,20.90
2023-06-16T07:57:17.747Z,20.90
2023-06-16T07:59:44.747Z,21.10
2023-06-16T08:02:11.805Z,21.20
2023-06-16T08:04:38.960Z,21.40
2023-06-16T08:07:06.368Z,21.40
2023-06-16T08:09:33.452Z,21.60
2023-06-16T08:12:00.814Z,21.70
2023-06-16T08:14:28.746Z,21.80
2023-06-16T08:16:55.808Z,21.90
2023-06-16T08:19:22.793Z,22.00
2023-06-16T08:21:49.849Z,22.20
2023-06-16T08:24:16.960Z,22.30
2023-06-16T08:26:46.153Z,22.40
2023-06-16T08:29:16.453Z,22.60
2023-06-16T08:31:43.433Z,22.70
2023-06-16T08:34:10.424Z,22.80
2023-06-16T08:36:37.952Z,22.90
2023-06-16T08:39:06.933Z,23.00
2023-06-16T08:41:37.381Z,23.10
2023-06-16T08:44:06.787Z,23.20
2023-06-16T08:46:33.882Z,23.30
2023-06-16T08:49:01.184Z,23.40
2023-06-16T08:51:29.383Z,23.40
2023-06-16T08:54:02.174Z,23.50
2023-06-16T08:56:34.132Z,23.70
2023-06-16T08:59:02.907Z,23.80
2023-06-16T09:01:31.892Z,23.90
2023-06-16T09:03:59.629Z,24.00
2023-06-16T09:06:26.894Z,24.10
2023-06-16T09:08:54.067Z,24.30
2023-06-16T09:11:28.045Z,24.40
2023-06-16T09:13:56.188Z,24.50
2023-06-16T09:16:24.550Z,24.70
2023-06-16T09:18:52.001Z,24.80
2023-06-16T09:21:25.164Z,24.90
2023-06-16T09:24:00.838Z,25.00
2023-06-16T09:26:36.970Z,25.10
2023-06-16T09:29:23.074Z,25.30
2023-06-16T09:31:50.202Z,25.30
2023-06-16T09:34:17.570Z,25.40
2023-06-16T09:36:45.898Z,25.50
2023-06-16T09:39:25.995Z,25.60
2023-06-16T09:41:54.326Z,25.80
2023-06-16T09:44:27.651Z,25.90
2023-06-16T09:46:55.015Z,26.00
2023-06-16T09:49:23.837Z,26.10
2023-06-16T09:51:56.192Z,26.20
2023-06-16T09:54:24.495Z,26.40
2023-06-16T09:56:51.969Z,26.40
2023-06-16T09:59:19.251Z,26.60
2023-06-16T10:01:48.560Z,26.70
2023-06-16T10:04:17.424Z,26.80
2023-06-16T10:07:03.892Z,26.90
2023-06-16T10:09:44.075Z,26.90
2023-06-16T10:12:19.484Z,27.00
2023-06-16T10:14:47.178Z,27.20
2023-06-16T10:17:17.391Z,27.30
2023-06-16T10:19:49.100Z,27.40
2023-06-16T10:22:17.114Z,27.50
2023-06-16T10:24:44.899Z,27.60
2023-06-16T10:27:14.448Z,27.60
2023-06-16T10:29:42.709Z,27.80
2023-06-16T10:32:11.412Z,27.90
2023-06-16T10:34:52.673Z,27.90
2023-06-16T10:37:23.140Z,28.10
2023-06-16T10:39:50.243Z,28.30
2023-06-16T10:42:17.409Z,28.30
2023-06-16T10:44:44.700Z,28.40
2023-06-16T10:47:11.923Z,28.60
2023-06-16T10:49:52.726Z,28.70
2023-06-16T10:52:36.829Z,28.80
2023-06-16T10:55:26.335Z,28.90
2023-06-16T10:58:20.533Z,29.10
2023-06-16T11:01:23.056Z,29.10
2023-06-16T11:04:00.993Z,29.20
2023-06-16T11:06:28.851Z,29.30
2023-06-16T11:08:58.754Z,29.40
2023-06-16T11:11:34.248Z,29.50
2023-06-16T11:14:02.342Z,29.60
2023-06-16T11:16:29.968Z,29.70
2023-06-16T11:18:58.835Z,29.80
2023-06-16T11:21:31.456Z,29.80
2023-06-16T11:24:14.967Z,29.90
2023-06-16T11:26:41.966Z,30.00
2023-06-16T11:29:09.436Z,30.10
2023-06-16T11:31:37.348Z,30.20
2023-06-16T11:34:06.284Z,30.20
2023-06-16T11:36:35.413Z,30.20
2023-06-16T11:39:04.946Z,30.20
2023-06-16T11:41:32.309Z,30.30
2023-06-16T11:44:00.032Z,30.30
2023-06-16T11:46:35.268Z,30.40
2023-06-16T11:49:03.123Z,30.40
2023-06-16T11:51:30.420Z,30.50
2023-06-16T11:53:57.607Z,30.50
2023-06-16T11:56:25.060Z,30.60
2023-06-16T11:58:54.009Z,30.70
2023-06-16T12:01:23.589Z,30.80
2023-06-16T12:04:05.039Z,30.90
2023-06-16T12:06:33.994Z,31.00
2023-06-16T12:09:02.655Z,31.10
2023-06-16T12:11:30.224Z,31.00
2023-06-16T12:13:58.443Z,31.10
2023-06-16T12:16:29.207Z,31.20
2023-06-16T12:18:58.847Z,31.20
2023-06-16T12:21:30.600Z,31.20
2023-06-16T12:24:03.463Z,31.20
2023-06-16T12:26:42.772Z,31.30
2023-06-16T12:29:12.047Z,31.30
2023-06-16T12:31:52.271Z,31.30
2023-06-16T12:34:34.321Z,31.40
2023-06-16T12:37:12.265Z,31.40
2023-06-16T12:39:41.927Z,31.50
2023-06-16T12:42:11.746Z,31.60
2023-06-16T12:44:49.485Z,31.60
2023-06-16T12:47:18.800Z,31.60
2023-06-16T12:49:46.184Z,31.60
2023-06-16T12:52:14.575Z,31.60
2023-06-16T12:54:41.835Z,31.60
2023-06-16T12:57:10.523Z,31.60
2023-06-16T12:59:38.609Z,31.70
2023-06-16T13:02:06.634Z,31.80
2023-06-16T13:04:34.243Z,31.80
2023-06-16T13:07:01.353Z,31.80
2023-06-16T13:09:28.508Z,31.80
2023-06-16T13:11:58.285Z,31.90
2023-06-16T13:14:26.394Z,31.90
2023-06-16T13:16:53.493Z,31.90
2023-06-16T13:19:20.740Z,32.00
2023-06-16T13:21:48.047Z,32.10
2023-06-16T13:24:15.128Z,32.20
2023-06-16T13:26:42.507Z,32.20
2023-06-16T13:29:09.719Z,32.40
2023-06-16T13:31:36.736Z,32.60
2023-06-16T13:34:04.094Z,32.80
2023-06-16T13:36:31.123Z,32.80
2023-06-16T13:38:58.498Z,33.00
2023-06-16T13:41:30.357Z,33.10
2023-06-16T13:43:57.501Z,33.20
2023-06-16T13:46:24.629Z,33.30
2023-06-16T13:48:51.765Z,33.40
2023-06-16T13:51:18.805Z,33.40
2023-06-16T13:53:46.105Z,33.50
2023-06-16T13:56:13.167Z,33.60
2023-06-16T13:58:40.348Z,33.70
2023-06-16T14:01:07.543Z,33.80
2023-06-16T14:03:34.665Z,33.90
2023-06-16T14:06:02.769Z,33.90
2023-06-16T14:08:30.377Z,34.00
2023-06-16T14:10:58.031Z,34.10
2023-06-16T14:13:25.215Z,34.10
2023-06-16T14:15:52.634Z,34.20
2023-06-16T14:18:20.095Z,34.10
2023-06-16T14:20:47.342Z,34.20
2023-06-16T14:23:16.382Z,34.20
2023-06-16T14:25:46.384Z,34.20
2023-06-16T14:28:15.656Z,34.30
2023-06-16T14:30:42.951Z,34.20
2023-06-16T14:33:12.151Z,34.20
2023-06-16T14:35:39.739Z,34.30
2023-06-16T14:38:06.908Z,34.30
2023-06-16T14:40:34.379Z,34.30
2023-06-16T14:43:01.506Z,34.30
2023-06-16T14:45:28.557Z,34.30
2023-06-16T14:47:56.305Z,34.40
2023-06-16T14:50:24.000Z,34.40
2023-06-16T14:52:51.443Z,34.50
2023-06-16T14:55:18.546Z,34.50
2023-06-16T14:57:45.846Z,34.40
2023-06-16T15:00:13.518Z,34.30
2023-06-16T15:02:40.751Z,34.30
2023-06-16T15:05:08.585Z,34.10
2023-06-16T15:07:35.588Z,34.00
2023-06-16T15:10:02.687Z,33.90
2023-06-16T15:12:29.701Z,33.90
2023-06-16T15:14:56.730Z,33.90
2023-06-16T15:17:23.858Z,33.90
2023-06-16T15:19:51.476Z,33.90
2023-06-16T15:22:18.472Z,33.90
2023-06-16T15:24:45.490Z,34.00
2023-06-16T15:27:12.547Z,33.90
2023-06-16T15:29:39.660Z,33.80
2023-06-16T15:32:09.245Z,33.80
2023-06-16T15:34:37.873Z,33.70
2023-06-16T15:37:05.644Z,33.70
2023-06-16T15:39:32.800Z,33.70
2023-06-16T15:41:59.925Z,33.70
2023-06-16T15:44:26.922Z,33.70
2023-06-16T15:46:53.922Z,33.70
2023-06-16T15:49:21.911Z,33.70
2023-06-16T15:51:49.998Z,33.60
2023-06-16T15:54:16.992Z,33.60
2023-06-16T15:56:43.967Z,33.70
2023-06-16T15:59:11.107Z,33.70
2023-06-16T16:01:40.055Z,33.60
2023-06-16T16:04:07.451Z,33.60
2023-06-16T16:06:34.668Z,33.60
2023-06-16T16:09:02.007Z,33.60
2023-06-16T16:11:29.061Z,33.60
2023-06-16T16:13:56.129Z,33.50
2023-06-16T16:16:23.180Z,33.50
2023-06-16T16:18:50.641Z,33.40
2023-06-16T16:21:17.642Z,33.40
2023-06-16T16:23:44.700Z,33.30
2023-06-16T16:26:11.812Z,33.30
2023-06-16T16:28:38.878Z,33.30
2023-06-16T16:31:05.989Z,33.20
2023-06-16T16:33:33.119Z,33.10
2023-06-16T16:36:00.080Z,33.10
2023-06-16T16:38:27.117Z,33.00
2023-06-16T16:40:54.087Z,32.90
2023-06-16T16:43:22.508Z,32.90
2023-06-16T16:45:49.536Z,32.80
2023-06-16T16:48:16.914Z,32.80
2023-06-16T16:50:44.227Z,32.80
2023-06-16T16:53:11.256Z,32.80
2023-06-16T16:55:38.253Z,32.70
2023-06-16T16:58:05.467Z,32.60
2023-06-16T17:00:32.868Z,32.50
2023-06-16T17:03:00.010Z,32.40
2023-06-16T17:05:27.081Z,32.40
2023-06-16T17:07:54.136Z,32.30
2023-06-16T17:10:21.847Z,32.20
2023-06-16T17:12:49.133Z,32.10
2023-06-16T17:15:17.044Z,32.00
2023-06-16T17:17:44.441Z,31.90
2023-06-16T17:20:12.115Z,31.80
2023-06-16T17:22:39.182Z,31.80
2023-06-16T17:25:06.895Z,31.70
2023-06-16T17:27:45.231Z,31.50
2023-06-16T17:30:20.718Z,31.30
2023-06-16T17:32:47.985Z,31.10
2023-06-16T17:35:15.134Z,31.00
2023-06-16T17:37:46.713Z,30.90
2023-06-16T17:40:18.516Z,30.70
2023-06-16T17:42:46.563Z,30.50
2023-06-16T17:45:13.587Z,30.30
2023-06-16T17:47:40.816Z,30.20
2023-06-16T17:50:08.114Z,30.00
2023-06-16T17:52:35.275Z,29.90
2023-06-16T17:55:03.093Z,29.70
2023-06-16T17:57:30.170Z,29.50
2023-06-16T17:59:57.278Z,29.40
2023-06-16T18:02:24.460Z,29.20
2023-06-16T18:04:51.573Z,29.10
2023-06-16T18:07:18.670Z,28.90
2023-06-16T18:09:45.727Z,28.80
2023-06-16T18:12:12.830Z,28.70
2023-06-16T18:14:39.938Z,28.60
2023-06-16T18:17:08.297Z,28.40
2023-06-16T18:19:35.567Z,28.40
2023-06-16T18:22:02.874Z,28.20
2023-06-16T18:24:29.998Z,28.10
2023-06-16T18:26:57.167Z,27.90
2023-06-16T18:29:24.407Z,27.80
2023-06-16T18:31:51.486Z,27.70
2023-06-16T18:34:18.497Z,27.60
2023-06-16T18:36:46.494Z,27.50
2023-06-16T18:39:14.962Z,27.40
2023-06-16T18:41:43.045Z,27.30
2023-06-16T18:44:10.730Z,27.20
2023-06-16T18:46:38.143Z,27.20
2023-06-16T18:49:05.593Z,27.00
2023-06-16T18:51:34.268Z,26.90
2023-06-16T18:54:01.347Z,26.90
2023-06-16T18:56:28.449Z,26.80
2023-06-16T18:58:55.697Z,26.70
2023-06-16T19:01:22.845Z,26.60
2023-06-16T19:03:50.901Z,26.50
2023-06-16T19:06:18.308Z,26.40
2023-06-16T19:08:49.188Z,26.30
2023-06-16T19:11:17.990Z,26.20
2023-06-16T19:13:48.100Z,26.10
2023-06-16T19:16:19.590Z,26.10
2023-06-16T19:18:47.461Z,25.90
2023-06-16T19:21:14.988Z,25.90
2023-06-16T19:23:44.007Z,25.80
2023-06-16T19:26:11.767Z,25.70
2023-06-16T19:28:50.507Z,25.60
2023-06-16T19:31:19.054Z,25.50
2023-06-16T19:33:46.235Z,25.40
2023-06-16T19:36:13.370Z,25.40
2023-06-16T19:38:40.376Z,25.30
2023-06-16T19:41:07.443Z,25.20
2023-06-16T19:43:34.457Z,25.10
2023-06-16T19:46:01.452Z,25.00
2023-06-16T19:48:28.460Z,24.90
2023-06-16T19:50:55.725Z,24.80
2023-06-16T19:53:22.761Z,24.70
2023-06-16T19:55:50.671Z,24.70
2023-06-16T19:58:21.174Z,24.60
2023-06-16T20:00:49.510Z,24.50
2023-06-16T20:03:17.078Z,24.40
2023-06-16T20:05:44.397Z,24.40
2023-06-16T20:08:11.447Z,24.30
2023-06-16T20:10:38.775Z,24.30
2023-06-16T20:13:07.513Z,24.20
2023-06-16T20:15:34.895Z,24.10
2023-06-16T20:18:02.348Z,24.10
2023-06-16T20:20:29.659Z,24.00
2023-06-16T20:22:56.701Z,23.90
2023-06-16T20:25:23.882Z,23.90
2023-06-16T20:27:54.677Z,23.80
2023-06-16T20:30:22.573Z,23.80
2023-06-16T20:32:50.947Z,23.70
2023-06-16T20:35:18.868Z,23.60
2023-06-16T20:37:50.688Z,23.50
2023-06-16T20:40:18.295Z,23.40
2023-06-16T20:42:48.814Z,23.40
2023-06-16T20:45:21.842Z,23.30
2023-06-16T20:47:53.122Z,23.30
2023-06-16T20:50:26.992Z,23.20
2023-06-16T20:52:54.944Z,23.20
2023-06-16T20:55:22.077Z,23.10
2023-06-16T20:57:50.055Z,23.00
2023-06-16T21:00:25.376Z,22.90
2023-06-16T21:02:53.785Z,22.90
2023-06-16T21:05:21.380Z,22.90
2023-06-16T21:07:49.269Z,22.80
2023-06-16T21:10:20.117Z,22.80
2023-06-16T21:12:47.846Z,22.70
2023-06-16T21:15:18.775Z,22.70
2023-06-16T21:17:47.907Z,22.60
2023-06-16T21:20:15.237Z,22.60
2023-06-16T21:22:48.425Z,22.50
2023-06-16T21:25:18.723Z,22.50
2023-06-16T21:27:45.838Z,22.50
2023-06-16T21:30:13.443Z,22.50
2023-06-16T21:32:41.327Z,22.40
2023-06-16T21:35:08.956Z,22.40
2023-06-16T21:37:36.620Z,22.40
2023-06-16T21:40:15.568Z,22.40
2023-06-16T21:42:44.237Z,22.30
2023-06-16T21:45:14.820Z,22.30
2023-06-16T21:47:42.372Z,22.20
2023-06-16T21:50:10.575Z,22.10
2023-06-16T21:52:38.486Z,22.10
2023-06-16T21:55:06.509Z,22.00
2023-06-16T21:57:36.049Z,22.00
2023-06-16T22:00:05.686Z,22.00
2023-06-16T22:02:32.798Z,21.90
2023-06-16T22:04:59.813Z,21.90
2023-06-16T22:07:27.230Z,21.90
2023-06-16T22:09:54.695Z,21.90
2023-06-16T22:12:22.212Z,21.80
2023-06-16T22:14:49.181Z,21.80
2023-06-16T22:17:17.278Z,21.70
2023-06-16T22:19:44.727Z,21.70
2023-06-16T22:22:12.418Z,21.60
2023-06-16T22:24:41.795Z,21.60
2023-06-16T22:29:40.830Z,21.50
2023-06-16T22:32:08.756Z,21.50
2023-06-16T22:34:36.587Z,21.40
2023-06-16T22:37:04.267Z,21.40
2023-06-16T22:39:31.480Z,21.40
2023-06-16T22:41:58.495Z,21.40
2023-06-16T22:44:26.431Z,21.40
2023-06-16T22:46:55.101Z,21.30
2023-06-16T22:49:25.330Z,21.30
2023-06-16T22:51:54.445Z,21.20
2023-06-16T22:54:21.834Z,21.20
2023-06-16T22:56:49.090Z,21.20
2023-06-16T22:59:16.677Z,21.20
2023-06-16T23:01:43.881Z,21.10
2023-06-16T23:04:11.123Z,21.00
2023-06-16T23:06:39.329Z,21.00
2023-06-16T23:09:07.296Z,20.90
2023-06-16T23:11:34.340Z,20.90
2023-06-16T23:14:01.447Z,20.90
2023-06-16T23:16:30.104Z,20.90
2023-06-16T23:18:57.153Z,20.80
2023-06-16T23:21:25.572Z,20.80
2023-06-16T23:23:54.931Z,20.70
2023-06-16T23:26:23.853Z,20.60
2023-06-16T23:28:51.415Z,20.60
2023-06-16T23:31:20.125Z,20.60
2023-06-16T23:33:48.999Z,20.60
2023-06-16T23:36:19.574Z,20.50
2023-06-16T23:38:46.996Z,20.50
2023-06-16T23:41:14.322Z,20.40
2023-06-16T23:43:41.684Z,20.40
2023-06-16T23:46:09.719Z,20.40
2023-06-16T23:48:36.866Z,20.40
2023-06-16T23:51:03.993Z,20.40
2023-06-16T23:53:32.088Z,20.40
2023-06-16T23:55:59.852Z,20.40
2023-06-16T23:58:29.203Z,20.30
